Tianjin Binhai International Airport
ZBTJ : rendu visible

Aérodrome :











RETROUVEZ-NOUS SUR...

 
LOGIN :

S'inscrire | Disclaimer

   EN    FR    IT 

 









Légende :    VFR   VFR Marginal   IFR   IFR Intensif   IFR Très Intensif
Visi : 
Plafond : 
>= 8 km
>= 3000ft
5 à 8 km
1000 à 3000 ft
1500m à 5 km
500 à 1000 ft
800 à 1500m
200 à 500 ft
< 800m
< 200 ft
Symboles :   Orages  Brouillard  Fortes neiges  Fortes précipitations  Vent > 20 kt






- Altitude de l'aérodrome : 10 ft
- Code IATA : TSN


ZBTJ - Tianjin Binhai International

DERNIER METAR :
  • 101600Z 20002MPS 6000 NSC 26/23 Q1002 NOSIG

METARs EXPIRÉS :
  • 101530Z 22002MPS 190V250 6000 NSC 27/24 Q1002 NOSIG
  • 101500Z 20003MPS 6000 NSC 27/24 Q1001 NOSIG
  • 101430Z 19004MPS 8000 NSC 28/24 Q1001 NOSIG
  • 101400Z 19003MPS 160V220 CAVOK 28/23 Q1001 NOSIG
  • 101330Z 19003MPS CAVOK 28/23 Q1001 NOSIG

TAF TAF ZBTJ
Valide du 10 à 12h jusqu'au 11 à 12h UTC


100901Z 1012/1112 15004MPS 6000 NSC TX35/1107Z TN26/1021Z
FIR ZBPE / Asie



MET'MAP, la Météo Aéronautique d'un coup d'oeil ! - Copyright ORBIFLY Décembre 2007 - Disclaimer

ORBIFLY MET'MAP TEAM :

Programmation & Développement : Alexandra Zaïnal
Sur une idée originale de : Baudouin d'Aumeries
Assistance à la programmation : Marc-Olivier Méhu
Soutien technique & logistique : Manuel Goepfert

Contact : metmap@orbifly.com




SOURCES & CREDITS :

   NOAA       Earth
Advisory